createdAt,value
2023-05-21T00:00:32.659Z,3.47
2023-05-21T00:01:34.418Z,3.30
2023-05-21T00:02:36.363Z,3.15
2023-05-21T00:03:41.930Z,3.30
2023-05-21T00:04:47.851Z,3.88
2023-05-21T00:05:50.408Z,3.28
2023-05-21T00:06:52.317Z,3.40
2023-05-21T00:07:55.195Z,3.50
2023-05-21T00:08:57.060Z,3.67
2023-05-21T00:09:58.967Z,3.47
2023-05-21T00:11:00.801Z,3.75
2023-05-21T00:12:02.602Z,3.83
2023-05-21T00:13:04.349Z,4.40
2023-05-21T00:14:06.230Z,3.72
2023-05-21T00:15:08.543Z,3.40
2023-05-21T00:16:11.387Z,3.90
2023-05-21T00:17:13.244Z,3.90
2023-05-21T00:18:15.148Z,3.65
2023-05-21T00:19:17.044Z,3.80
2023-05-21T00:20:18.820Z,4.20
2023-05-21T00:21:23.188Z,3.95
2023-05-21T00:22:25.006Z,4.20
2023-05-21T00:23:26.996Z,4.05
2023-05-21T00:24:29.462Z,3.90
2023-05-21T00:25:31.672Z,3.97
2023-05-21T00:26:34.609Z,4.55
2023-05-21T00:27:36.508Z,4.40
2023-05-21T00:28:38.250Z,4.32
2023-05-21T00:29:40.647Z,3.97
2023-05-21T00:30:43.486Z,4.28
2023-05-21T00:31:45.321Z,3.95
2023-05-21T00:32:47.567Z,4.07
2023-05-21T00:33:49.392Z,4.30
2023-05-21T00:34:51.263Z,4.25
2023-05-21T00:35:53.092Z,4.32
2023-05-21T00:36:55.768Z,4.20
2023-05-21T00:37:57.562Z,4.43
2023-05-21T00:38:59.324Z,4.20
2023-05-21T00:40:01.993Z,4.50
2023-05-21T00:41:03.828Z,4.15
2023-05-21T00:42:05.598Z,4.50
2023-05-21T00:43:10.239Z,4.47
2023-05-21T00:44:14.132Z,4.63
2023-05-21T00:45:16.124Z,4.45
2023-05-21T00:46:19.859Z,4.05
2023-05-21T00:47:21.915Z,4.13
2023-05-21T00:48:23.888Z,4.45
2023-05-21T00:49:26.074Z,4.45
2023-05-21T00:50:27.943Z,4.53
2023-05-21T00:51:31.030Z,4.00
2023-05-21T00:52:33.552Z,3.85
2023-05-21T00:53:35.947Z,4.10
2023-05-21T00:54:37.716Z,4.32
2023-05-21T00:55:39.855Z,3.67
2023-05-21T00:56:42.288Z,3.80
2023-05-21T00:57:44.135Z,3.60
2023-05-21T00:58:46.147Z,3.80
2023-05-21T00:59:50.746Z,3.47
2023-05-21T01:00:56.014Z,3.35
2023-05-21T01:02:04.372Z,3.45
2023-05-21T01:03:06.774Z,3.42
2023-05-21T01:04:08.591Z,3.40
2023-05-21T01:05:10.949Z,3.72
2023-05-21T01:06:14.270Z,3.80
2023-05-21T01:07:16.029Z,3.50
2023-05-21T01:08:18.116Z,4.10
2023-05-21T01:09:20.546Z,4.10
2023-05-21T01:10:23.102Z,3.60
2023-05-21T01:11:46.632Z,3.67
2023-05-21T01:12:49.130Z,4.00
2023-05-21T01:13:51.313Z,3.80
2023-05-21T01:14:53.792Z,4.15
2023-05-21T01:15:55.599Z,4.10
2023-05-21T01:16:59.740Z,3.97
2023-05-21T01:18:01.829Z,3.97
2023-05-21T01:19:05.701Z,4.38
2023-05-21T01:20:11.462Z,3.70
2023-05-21T01:21:17.444Z,3.28
2023-05-21T01:22:21.992Z,3.80
2023-05-21T01:23:23.939Z,4.30
2023-05-21T01:24:25.944Z,4.38
2023-05-21T01:25:27.694Z,4.18
2023-05-21T01:26:30.560Z,4.45
2023-05-21T01:27:32.334Z,3.75
2023-05-21T01:28:34.776Z,3.90
2023-05-21T01:29:36.558Z,4.30
2023-05-21T01:30:40.946Z,4.13
2023-05-21T01:31:46.829Z,4.00
2023-05-21T01:32:56.659Z,4.25
2023-05-21T01:34:04.326Z,3.88
2023-05-21T01:35:14.727Z,4.10
2023-05-21T01:36:26.890Z,3.90
2023-05-21T01:37:40.603Z,3.80
2023-05-21T01:38:49.315Z,3.67
2023-05-21T01:39:57.231Z,4.07
2023-05-21T01:41:04.116Z,4.32
2023-05-21T01:42:10.427Z,3.60
2023-05-21T01:43:14.153Z,3.60
2023-05-21T01:44:18.975Z,3.90
2023-05-21T01:45:24.069Z,4.63
2023-05-21T01:46:29.132Z,3.97
2023-05-21T01:47:32.342Z,3.95
2023-05-21T01:48:35.235Z,3.80
2023-05-21T01:49:37.761Z,4.03
2023-05-21T01:50:41.778Z,4.38
2023-05-21T01:51:44.058Z,4.10
2023-05-21T01:52:50.236Z,3.88
2023-05-21T01:53:51.960Z,4.00
2023-05-21T01:54:54.628Z,4.13
2023-05-21T01:55:56.544Z,3.75
2023-05-21T01:56:58.408Z,4.50
2023-05-21T01:58:02.554Z,4.25
2023-05-21T01:59:06.031Z,4.35
2023-05-21T02:00:09.254Z,4.30
2023-05-21T02:01:12.528Z,4.63
2023-05-21T02:02:14.429Z,3.97
2023-05-21T02:03:16.645Z,5.00
2023-05-21T02:04:18.507Z,4.32
2023-05-21T02:05:20.306Z,3.95
2023-05-21T02:06:22.781Z,4.00
2023-05-21T02:07:24.747Z,3.65
2023-05-21T02:08:27.464Z,4.35
2023-05-21T02:09:29.211Z,3.30
2023-05-21T02:10:31.099Z,3.53
2023-05-21T02:11:32.867Z,4.18
2023-05-21T02:12:34.613Z,4.30
2023-05-21T02:13:40.816Z,3.88
2023-05-21T02:14:42.703Z,4.40
2023-05-21T02:15:45.103Z,4.50
2023-05-21T02:16:47.320Z,4.50
2023-05-21T02:17:51.504Z,4.53
2023-05-21T02:18:54.590Z,4.45
2023-05-21T02:19:56.392Z,4.28
2023-05-21T02:20:58.201Z,5.03
2023-05-21T02:21:59.932Z,4.50
2023-05-21T02:23:01.662Z,4.93
2023-05-21T02:24:03.612Z,5.05
2023-05-21T02:25:09.884Z,5.57
2023-05-21T02:26:11.714Z,5.35
2023-05-21T02:27:13.863Z,4.93
2023-05-21T02:28:16.009Z,4.97
2023-05-21T02:29:17.844Z,5.32
2023-05-21T02:30:20.185Z,4.97
2023-05-21T02:31:21.941Z,5.47
2023-05-21T02:32:23.921Z,5.45
2023-05-21T02:33:26.297Z,5.40
2023-05-21T02:34:31.032Z,5.40
2023-05-21T02:35:32.931Z,5.72
2023-05-21T02:36:36.291Z,5.53
2023-05-21T02:37:40.543Z,5.28
2023-05-21T02:38:45.539Z,5.30
2023-05-21T02:39:47.269Z,5.10
2023-05-21T02:40:51.237Z,5.10
2023-05-21T02:41:53.051Z,5.30
2023-05-21T02:42:54.788Z,6.03
2023-05-21T02:43:56.501Z,5.00
2023-05-21T02:44:58.394Z,5.13
2023-05-21T02:46:00.346Z,5.38
2023-05-21T02:47:02.158Z,5.47
2023-05-21T02:48:04.044Z,5.88
2023-05-21T02:49:05.916Z,5.97
2023-05-21T02:50:09.099Z,5.50
2023-05-21T02:51:10.842Z,5.45
2023-05-21T02:52:12.948Z,5.78
2023-05-21T02:53:14.765Z,4.18
2023-05-21T02:54:16.515Z,5.30
2023-05-21T02:55:18.248Z,4.22
2023-05-21T02:56:20.135Z,5.10
2023-05-21T02:57:21.894Z,5.10
2023-05-21T02:58:25.371Z,6.47
2023-05-21T02:59:27.224Z,4.75
2023-05-21T03:00:28.975Z,4.65
2023-05-21T03:01:30.858Z,6.40
2023-05-21T03:02:32.780Z,5.03
2023-05-21T03:03:34.726Z,5.53
2023-05-21T03:04:39.206Z,5.28
2023-05-21T03:05:41.443Z,5.43
2023-05-21T03:06:44.672Z,5.72
2023-05-21T03:07:46.476Z,5.50
2023-05-21T03:08:48.394Z,6.32
2023-05-21T03:09:50.207Z,6.30
2023-05-21T03:10:51.957Z,5.95
2023-05-21T03:11:53.735Z,6.20
2023-05-21T03:12:55.474Z,5.68
2023-05-21T03:13:57.406Z,6.22
2023-05-21T03:14:59.898Z,6.00
2023-05-21T03:16:01.684Z,5.53
2023-05-21T03:17:06.262Z,6.45
2023-05-21T03:18:08.236Z,5.65
2023-05-21T03:19:11.637Z,5.80
2023-05-21T03:20:16.694Z,5.28
2023-05-21T03:21:18.549Z,6.15
2023-05-21T03:22:20.331Z,6.38
2023-05-21T03:23:22.082Z,5.72
2023-05-21T03:24:23.860Z,6.07
2023-05-21T03:25:25.822Z,6.25
2023-05-21T03:26:27.707Z,6.05
2023-05-21T03:27:29.442Z,6.20
2023-05-21T03:28:31.722Z,6.10
2023-05-21T03:29:34.591Z,6.40
2023-05-21T03:30:38.385Z,5.32
2023-05-21T03:31:40.236Z,5.15
2023-05-21T03:32:42.029Z,4.18
2023-05-21T03:33:43.818Z,4.75
2023-05-21T03:34:45.597Z,4.70
2023-05-21T03:35:47.345Z,4.25
2023-05-21T03:36:49.373Z,4.05
2023-05-21T03:37:51.275Z,4.07
2023-05-21T03:38:53.046Z,3.58
2023-05-21T03:39:54.830Z,4.30
2023-05-21T03:40:56.550Z,5.47
2023-05-21T03:41:58.274Z,5.60
2023-05-21T03:43:00.032Z,5.65
2023-05-21T03:44:01.842Z,4.53
2023-05-21T03:45:04.205Z,4.88
2023-05-21T03:46:05.999Z,5.03
2023-05-21T03:47:07.854Z,4.72
2023-05-21T03:48:09.582Z,4.40
2023-05-21T03:49:11.682Z,4.65
2023-05-21T03:50:13.496Z,5.05
2023-05-21T03:51:16.145Z,4.60
2023-05-21T03:52:17.962Z,5.70
2023-05-21T03:53:19.788Z,5.65
2023-05-21T03:54:21.647Z,5.45
2023-05-21T03:55:23.415Z,5.90
2023-05-21T03:56:25.155Z,5.45
2023-05-21T03:57:26.980Z,4.65
2023-05-21T03:58:28.707Z,5.22
2023-05-21T03:59:30.495Z,6.10
2023-05-21T04:00:37.587Z,4.95
2023-05-21T04:01:39.338Z,5.40
2023-05-21T04:02:41.193Z,7.05
2023-05-21T04:03:43.162Z,6.05
2023-05-21T04:04:45.787Z,5.28
2023-05-21T04:05:47.668Z,6.20
2023-05-21T04:06:51.707Z,6.40
2023-05-21T04:07:53.494Z,5.30
2023-05-21T04:08:55.263Z,5.25
2023-05-21T04:09:57.081Z,5.68
2023-05-21T04:10:58.891Z,5.88
2023-05-21T04:12:00.642Z,5.40
2023-05-21T04:13:02.432Z,5.35
2023-05-21T04:14:04.213Z,4.85
2023-05-21T04:15:06.905Z,5.20
2023-05-21T04:16:12.434Z,5.47
2023-05-21T04:17:14.329Z,5.20
2023-05-21T04:18:20.657Z,5.13
2023-05-21T04:19:22.425Z,5.30
2023-05-21T04:20:24.273Z,5.10
2023-05-21T04:21:26.151Z,4.50
2023-05-21T04:22:27.885Z,5.40
2023-05-21T04:23:29.676Z,4.70
2023-05-21T04:24:31.814Z,5.03
2023-05-21T04:25:34.252Z,4.90
2023-05-21T04:26:36.271Z,4.88
2023-05-21T04:27:38.022Z,4.95
2023-05-21T04:28:42.173Z,4.72
2023-05-21T04:29:44.000Z,4.85
2023-05-21T04:30:50.015Z,4.40
2023-05-21T04:31:51.837Z,5.10
2023-05-21T04:32:54.982Z,5.30
2023-05-21T04:33:57.147Z,6.22
2023-05-21T04:35:01.226Z,6.00
2023-05-21T04:36:03.992Z,4.88
2023-05-21T04:37:06.970Z,4.85
2023-05-21T04:38:08.697Z,4.85
2023-05-21T04:39:10.482Z,4.60
2023-05-21T04:40:18.433Z,5.22
2023-05-21T04:41:21.372Z,4.45
2023-05-21T04:42:24.179Z,4.80
2023-05-21T04:43:26.804Z,4.90
2023-05-21T04:44:28.611Z,4.93
2023-05-21T04:45:30.916Z,4.47
2023-05-21T04:46:32.679Z,4.10
2023-05-21T04:47:35.708Z,3.70
2023-05-21T04:48:37.728Z,3.70
2023-05-21T04:49:39.468Z,3.50
2023-05-21T04:50:41.731Z,3.60
2023-05-21T04:51:43.574Z,3.72
2023-05-21T04:52:45.992Z,3.50
2023-05-21T04:53:48.293Z,4.60
2023-05-21T04:54:50.084Z,4.93
2023-05-21T04:55:51.854Z,5.20
2023-05-21T04:56:53.649Z,4.43
2023-05-21T04:57:55.387Z,5.03
2023-05-21T04:58:58.906Z,4.55
2023-05-21T05:00:00.768Z,4.78
2023-05-21T05:01:04.235Z,4.70
2023-05-21T05:02:06.133Z,4.72
2023-05-21T05:03:08.258Z,4.82
2023-05-21T05:04:10.029Z,4.40
2023-05-21T05:05:11.781Z,4.85
2023-05-21T05:06:13.567Z,4.57
2023-05-21T05:07:15.702Z,4.50
2023-05-21T05:08:17.432Z,4.68
2023-05-21T05:09:21.628Z,4.80
2023-05-21T05:10:23.386Z,5.03
2023-05-21T05:11:25.348Z,4.88
2023-05-21T05:12:27.093Z,4.82
2023-05-21T05:13:28.955Z,5.07
2023-05-21T05:14:30.714Z,4.85
2023-05-21T05:15:32.449Z,5.20
2023-05-21T05:16:35.748Z,5.20
2023-05-21T05:17:37.612Z,4.53
2023-05-21T05:18:39.380Z,4.95
2023-05-21T05:19:41.140Z,4.70
2023-05-21T05:20:42.967Z,4.90
2023-05-21T05:21:44.771Z,5.05
2023-05-21T05:22:46.653Z,5.28
2023-05-21T05:23:48.407Z,4.80
2023-05-21T05:24:50.196Z,5.10
2023-05-21T05:25:52.068Z,4.78
2023-05-21T05:26:53.837Z,5.03
2023-05-21T05:27:55.645Z,5.05
2023-05-21T05:28:57.450Z,5.25
2023-05-21T05:29:59.236Z,5.15
2023-05-21T05:31:01.079Z,5.30
2023-05-21T05:32:02.862Z,4.88
2023-05-21T05:33:04.726Z,5.40
2023-05-21T05:34:06.563Z,5.65
2023-05-21T05:35:08.956Z,5.38
2023-05-21T05:36:10.724Z,5.25
2023-05-21T05:37:12.562Z,4.95
2023-05-21T05:38:14.341Z,5.18
2023-05-21T05:39:16.163Z,5.18
2023-05-21T05:40:17.950Z,5.72
2023-05-21T05:41:19.698Z,5.07
2023-05-21T05:42:21.519Z,5.20
2023-05-21T05:43:25.552Z,4.80
2023-05-21T05:44:27.607Z,4.63
2023-05-21T05:45:29.380Z,4.20
2023-05-21T05:46:31.187Z,5.32
2023-05-21T05:47:33.101Z,5.07
2023-05-21T05:48:37.438Z,4.55
2023-05-21T05:49:39.223Z,5.38
2023-05-21T05:50:41.175Z,4.60
2023-05-21T05:51:42.961Z,4.32
2023-05-21T05:52:44.767Z,4.40
2023-05-21T05:53:46.565Z,4.70
2023-05-21T05:54:48.347Z,4.20
2023-05-21T05:55:50.164Z,5.13
2023-05-21T05:56:51.897Z,5.38
2023-05-21T05:57:53.749Z,5.18
2023-05-21T05:58:55.748Z,5.07
2023-05-21T05:59:57.928Z,4.55
2023-05-21T06:00:59.682Z,5.13
2023-05-21T06:02:01.558Z,4.93
2023-05-21T06:03:04.140Z,5.78
2023-05-21T06:04:06.035Z,5.90
2023-05-21T06:05:08.518Z,5.18
2023-05-21T06:06:10.353Z,5.68
2023-05-21T06:07:12.177Z,5.40
2023-05-21T06:08:13.954Z,5.57
2023-05-21T06:09:15.717Z,5.65
2023-05-21T06:10:17.567Z,5.78
2023-05-21T06:11:20.086Z,6.18
2023-05-21T06:12:21.844Z,5.93
2023-05-21T06:13:23.635Z,5.65
2023-05-21T06:14:25.531Z,5.45
2023-05-21T06:15:27.313Z,6.22
2023-05-21T06:16:31.661Z,5.25
2023-05-21T06:17:33.751Z,6.00
2023-05-21T06:18:35.983Z,6.20
2023-05-21T06:19:37.739Z,6.00
2023-05-21T06:20:39.481Z,6.20
2023-05-21T06:21:41.266Z,6.55
2023-05-21T06:22:43.048Z,6.20
2023-05-21T06:23:44.861Z,5.88
2023-05-21T06:24:46.658Z,6.63
2023-05-21T06:25:49.980Z,5.90
2023-05-21T06:26:51.937Z,6.35
2023-05-21T06:27:53.733Z,5.80
2023-05-21T06:28:55.526Z,6.00
2023-05-21T06:29:57.582Z,6.32
2023-05-21T06:30:59.355Z,6.70
2023-05-21T06:32:01.842Z,5.95
2023-05-21T06:33:03.868Z,5.47
2023-05-21T06:34:05.821Z,5.75
2023-05-21T06:35:08.095Z,6.18
2023-05-21T06:36:09.902Z,6.15
2023-05-21T06:37:11.704Z,6.07
2023-05-21T06:38:13.459Z,5.53
2023-05-21T06:39:15.227Z,6.50
2023-05-21T06:40:17.128Z,5.40
2023-05-21T06:41:18.858Z,5.10
2023-05-21T06:42:20.659Z,4.60
2023-05-21T06:43:22.567Z,5.30
2023-05-21T06:44:27.381Z,5.18
2023-05-21T06:45:29.136Z,5.25
2023-05-21T06:46:31.142Z,4.65
2023-05-21T06:47:32.945Z,4.72
2023-05-21T06:48:36.212Z,5.45
2023-05-21T06:49:38.141Z,4.95
2023-05-21T06:50:39.928Z,5.20
2023-05-21T06:51:42.684Z,5.45
2023-05-21T06:52:44.434Z,4.38
2023-05-21T06:53:46.226Z,5.05
2023-05-21T06:54:47.962Z,5.30
2023-05-21T06:55:53.863Z,4.82
2023-05-21T06:56:55.759Z,4.28
2023-05-21T06:57:58.233Z,4.30
2023-05-21T06:58:59.980Z,4.35
2023-05-21T07:00:02.000Z,4.05
2023-05-21T07:01:03.862Z,4.40
2023-05-21T07:02:06.530Z,4.28
2023-05-21T07:03:08.395Z,3.70
2023-05-21T07:04:10.858Z,4.25
2023-05-21T07:05:12.603Z,4.18
2023-05-21T07:06:14.525Z,3.92
2023-05-21T07:07:16.326Z,4.10
2023-05-21T07:08:19.987Z,4.22
2023-05-21T07:09:21.759Z,3.97
2023-05-21T07:10:23.535Z,3.55
2023-05-21T07:11:28.869Z,3.45
2023-05-21T07:12:30.691Z,4.10
2023-05-21T07:13:32.492Z,3.80
2023-05-21T07:14:34.370Z,3.58
2023-05-21T07:15:36.441Z,3.47
2023-05-21T07:16:39.329Z,3.80
2023-05-21T07:17:41.194Z,4.00
2023-05-21T07:18:43.014Z,3.83
2023-05-21T07:19:44.810Z,3.80
2023-05-21T07:20:46.670Z,3.78
2023-05-21T07:21:49.519Z,4.18
2023-05-21T07:22:51.370Z,3.60
2023-05-21T07:23:53.101Z,3.75
2023-05-21T07:24:54.851Z,3.58
2023-05-21T07:25:56.611Z,3.60
2023-05-21T07:26:58.424Z,3.70
2023-05-21T07:28:00.236Z,3.67
2023-05-21T07:29:01.987Z,3.85
2023-05-21T07:30:04.047Z,4.13
2023-05-21T07:31:05.944Z,3.72
2023-05-21T07:32:07.779Z,4.30
2023-05-21T07:33:09.597Z,3.72
2023-05-21T07:34:11.494Z,3.85
2023-05-21T07:35:13.240Z,3.30
2023-05-21T07:36:14.992Z,2.92
2023-05-21T07:37:16.816Z,3.50
2023-05-21T07:38:18.584Z,3.40
2023-05-21T07:39:20.333Z,3.50
2023-05-21T07:40:22.092Z,3.40
2023-05-21T07:41:23.906Z,3.70
2023-05-21T07:42:26.715Z,4.20
2023-05-21T07:43:28.584Z,3.67
2023-05-21T07:44:31.995Z,3.60
2023-05-21T07:45:33.763Z,3.65
2023-05-21T07:46:35.686Z,3.75
2023-05-21T07:47:37.522Z,4.10
2023-05-21T07:48:39.363Z,4.30
2023-05-21T07:49:41.151Z,3.97
2023-05-21T07:50:42.932Z,3.75
2023-05-21T07:51:44.950Z,3.85
2023-05-21T07:52:46.766Z,3.75
2023-05-21T07:53:48.568Z,4.63
2023-05-21T07:54:50.476Z,4.95
2023-05-21T07:55:52.428Z,3.42
2023-05-21T07:56:54.158Z,3.58
2023-05-21T07:57:56.455Z,4.20
2023-05-21T07:58:58.288Z,4.00
2023-05-21T08:00:00.036Z,4.07
2023-05-21T08:01:02.032Z,3.67
2023-05-21T08:02:04.017Z,3.95
2023-05-21T08:03:05.873Z,4.35
2023-05-21T08:04:08.162Z,3.72
2023-05-21T08:05:10.712Z,3.80
2023-05-21T08:06:12.558Z,4.22
2023-05-21T08:07:19.527Z,3.67
2023-05-21T08:08:22.281Z,4.68
2023-05-21T08:09:24.037Z,3.95
2023-05-21T08:10:25.888Z,3.83
2023-05-21T08:11:28.458Z,3.83
2023-05-21T08:12:30.323Z,3.90
2023-05-21T08:13:32.152Z,3.60
2023-05-21T08:14:33.948Z,3.72
2023-05-21T08:15:35.899Z,4.05
2023-05-21T08:16:38.004Z,3.83
2023-05-21T08:17:39.817Z,4.03
2023-05-21T08:18:41.670Z,4.40
2023-05-21T08:19:43.481Z,4.03
2023-05-21T08:20:46.056Z,3.35
2023-05-21T08:21:47.910Z,4.35
2023-05-21T08:22:50.090Z,3.88
2023-05-21T08:23:55.042Z,3.50
2023-05-21T08:24:56.848Z,3.60
2023-05-21T08:25:58.640Z,3.78
2023-05-21T08:27:00.492Z,4.15
2023-05-21T08:28:02.263Z,3.20
2023-05-21T08:29:04.075Z,3.28
2023-05-21T08:30:06.506Z,3.13
2023-05-21T08:31:08.336Z,3.42
2023-05-21T08:32:10.342Z,3.58
2023-05-21T08:33:12.504Z,3.30
2023-05-21T08:34:14.338Z,3.35
2023-05-21T08:35:16.660Z,3.10
2023-05-21T08:36:18.957Z,3.55
2023-05-21T08:37:21.806Z,3.63
2023-05-21T08:38:23.610Z,3.75
2023-05-21T08:39:25.334Z,3.38
2023-05-21T08:40:27.107Z,3.33
2023-05-21T08:41:31.306Z,3.78
2023-05-21T08:42:46.025Z,3.17
2023-05-21T08:43:53.041Z,3.35
2023-05-21T08:45:00.743Z,3.40
2023-05-21T08:46:04.551Z,3.58
2023-05-21T08:47:10.649Z,3.90
2023-05-21T08:48:13.314Z,3.80
2023-05-21T08:49:18.999Z,3.70
2023-05-21T08:50:22.057Z,3.42
2023-05-21T08:51:23.794Z,3.38
2023-05-21T08:52:26.570Z,3.45
2023-05-21T08:53:29.223Z,3.28
2023-05-21T08:54:31.201Z,2.95
2023-05-21T08:55:35.195Z,3.53
2023-05-21T08:56:38.591Z,3.10
2023-05-21T08:57:43.661Z,3.65
2023-05-21T08:58:46.948Z,2.65
2023-05-21T08:59:48.766Z,2.90
2023-05-21T09:00:50.882Z,3.05
2023-05-21T09:01:54.012Z,3.42
2023-05-21T09:02:56.983Z,3.90
2023-05-21T09:04:12.350Z,3.90
2023-05-21T09:05:22.861Z,3.97
2023-05-21T09:06:27.573Z,3.63
2023-05-21T09:07:31.836Z,3.72
2023-05-21T09:08:36.139Z,3.47
2023-05-21T09:09:54.497Z,4.20
2023-05-21T09:10:56.407Z,3.35
2023-05-21T09:11:58.148Z,3.30
2023-05-21T09:13:00.348Z,3.65
2023-05-21T09:14:02.866Z,4.00
2023-05-21T09:15:05.470Z,3.58
2023-05-21T09:16:08.188Z,3.35
2023-05-21T09:17:13.782Z,3.67
2023-05-21T09:18:15.573Z,3.80
2023-05-21T09:19:18.080Z,3.30
2023-05-21T09:20:25.998Z,3.30
2023-05-21T09:21:32.821Z,3.50
2023-05-21T09:22:34.657Z,3.97
2023-05-21T09:23:36.454Z,3.40
2023-05-21T09:24:38.277Z,3.70
2023-05-21T09:25:40.202Z,3.42
2023-05-21T09:26:45.221Z,3.38
2023-05-21T09:27:47.028Z,3.80
2023-05-21T09:28:48.835Z,3.83
2023-05-21T09:29:50.668Z,4.22
2023-05-21T09:30:54.465Z,3.35
2023-05-21T09:31:56.328Z,3.70
2023-05-21T09:33:02.561Z,3.50
2023-05-21T09:34:04.496Z,3.20
2023-05-21T09:35:14.334Z,3.75
2023-05-21T09:36:20.399Z,4.10
2023-05-21T09:37:27.480Z,3.22
2023-05-21T09:38:30.433Z,4.20
2023-05-21T09:39:32.253Z,4.13
2023-05-21T09:40:35.963Z,3.95
2023-05-21T09:41:38.192Z,4.20
2023-05-21T09:42:41.069Z,4.38
2023-05-21T09:43:45.914Z,3.17
2023-05-21T09:44:48.022Z,3.80
2023-05-21T09:45:58.991Z,3.60
2023-05-21T09:47:02.982Z,3.35
2023-05-21T09:48:04.905Z,3.72
2023-05-21T09:49:06.781Z,3.90
2023-05-21T09:50:13.201Z,3.50
2023-05-21T09:51:16.790Z,3.78
2023-05-21T09:52:26.340Z,3.50
2023-05-21T09:53:29.683Z,3.90
2023-05-21T09:54:33.420Z,3.70
2023-05-21T09:55:36.482Z,3.75
2023-05-21T09:56:40.924Z,3.20
2023-05-21T09:57:47.589Z,3.20
2023-05-21T09:59:02.112Z,3.33
2023-05-21T10:00:06.599Z,3.42
2023-05-21T10:01:10.535Z,3.67
2023-05-21T10:02:23.580Z,3.20
2023-05-21T10:03:28.538Z,4.07
2023-05-21T10:04:31.777Z,3.58
2023-05-21T10:05:34.071Z,3.65
2023-05-21T10:06:43.147Z,3.60
2023-05-21T10:07:53.778Z,3.50
2023-05-21T10:08:57.062Z,3.22
2023-05-21T10:10:01.322Z,3.60
2023-05-21T10:11:06.623Z,3.15
2023-05-21T10:12:10.948Z,3.50
2023-05-21T10:13:14.948Z,3.50
2023-05-21T10:14:20.283Z,3.40
2023-05-21T10:15:25.488Z,3.30
2023-05-21T10:16:29.837Z,3.75
2023-05-21T10:17:31.806Z,3.47
2023-05-21T10:18:33.961Z,3.60
2023-05-21T10:19:37.396Z,3.90
2023-05-21T10:20:39.932Z,3.67
2023-05-21T10:21:42.509Z,3.38
2023-05-21T10:22:44.984Z,3.80
2023-05-21T10:23:46.900Z,3.08
2023-05-21T10:24:49.514Z,3.53
2023-05-21T10:25:52.855Z,3.80
2023-05-21T10:26:54.903Z,3.50
2023-05-21T10:27:57.493Z,3.80
2023-05-21T10:29:00.678Z,3.40
2023-05-21T10:30:04.632Z,3.30
2023-05-21T10:31:06.862Z,3.78
2023-05-21T10:32:08.623Z,3.60
2023-05-21T10:33:12.033Z,3.85
2023-05-21T10:34:14.903Z,3.60
2023-05-21T10:35:17.858Z,3.72
2023-05-21T10:36:20.761Z,3.83
2023-05-21T10:37:29.273Z,3.38
2023-05-21T10:38:33.681Z,3.95
2023-05-21T10:39:36.878Z,3.05
2023-05-21T10:40:38.915Z,3.67
2023-05-21T10:41:53.992Z,3.85
2023-05-21T10:43:26.561Z,3.10
2023-05-21T10:44:43.622Z,3.13
2023-05-21T10:46:06.586Z,3.83
2023-05-21T10:47:35.796Z,4.20
2023-05-21T10:48:59.095Z,3.53
2023-05-21T10:50:36.222Z,3.55
2023-05-21T10:51:56.748Z,3.60
2023-05-21T10:52:58.495Z,3.70
2023-05-21T10:54:05.913Z,4.32
2023-05-21T10:55:41.508Z,4.35
2023-05-21T10:56:55.259Z,3.83
2023-05-21T10:58:13.976Z,3.60
2023-05-21T10:59:36.603Z,4.00
2023-05-21T11:00:38.981Z,3.50
2023-05-21T11:01:42.332Z,3.53
2023-05-21T11:02:45.921Z,3.80
2023-05-21T11:03:48.853Z,3.60
2023-05-21T11:04:58.828Z,3.80
2023-05-21T11:06:03.046Z,3.88
2023-05-21T11:07:04.954Z,4.10
2023-05-21T11:08:21.332Z,4.88
2023-05-21T11:09:23.549Z,3.63
2023-05-21T11:10:38.881Z,3.75
2023-05-21T11:11:43.951Z,3.35
2023-05-21T11:13:15.590Z,3.45
2023-05-21T11:15:27.714Z,3.22
2023-05-21T11:16:29.618Z,3.55
2023-05-21T11:17:40.406Z,3.47
2023-05-21T11:18:42.212Z,2.97
2023-05-21T11:19:47.588Z,3.78
2023-05-21T11:20:52.178Z,3.53
2023-05-21T11:21:55.598Z,2.83
2023-05-21T11:22:58.489Z,2.88
2023-05-21T11:24:03.045Z,2.95
2023-05-21T11:25:05.209Z,3.63
2023-05-21T11:26:07.203Z,3.00
2023-05-21T11:27:09.031Z,3.42
2023-05-21T11:28:10.752Z,3.58
2023-05-21T11:29:14.763Z,3.83
2023-05-21T11:30:18.899Z,3.45
2023-05-21T11:31:27.373Z,3.45
2023-05-21T11:32:30.002Z,3.63
2023-05-21T11:33:33.557Z,3.60
2023-05-21T11:34:46.230Z,3.95
2023-05-21T11:35:47.920Z,3.70
2023-05-21T11:36:50.246Z,3.53
2023-05-21T11:37:54.391Z,3.35
2023-05-21T11:39:12.665Z,3.72
2023-05-21T11:40:25.902Z,3.72
2023-05-21T11:41:27.803Z,3.78
2023-05-21T11:42:30.415Z,3.85
2023-05-21T11:43:32.191Z,3.60
2023-05-21T11:44:40.533Z,3.88
2023-05-21T11:45:46.900Z,3.35
2023-05-21T11:46:49.084Z,3.72
2023-05-21T11:47:52.149Z,3.25
2023-05-21T11:48:55.362Z,3.30
2023-05-21T11:49:59.816Z,3.65
2023-05-21T11:51:02.360Z,3.97
2023-05-21T11:52:06.190Z,3.25
2023-05-21T11:53:09.287Z,3.78
2023-05-21T11:54:12.143Z,3.55
2023-05-21T11:55:15.925Z,3.67
2023-05-21T11:56:18.468Z,3.90
2023-05-21T11:57:20.305Z,3.60
2023-05-21T11:58:22.340Z,3.60
2023-05-21T11:59:24.141Z,3.80
2023-05-21T12:00:26.124Z,3.35
2023-05-21T12:01:27.868Z,3.40
2023-05-21T12:02:33.390Z,3.20
2023-05-21T12:03:35.699Z,3.55
2023-05-21T12:04:37.643Z,3.28
2023-05-21T12:05:49.403Z,3.63
2023-05-21T12:06:52.045Z,3.47
2023-05-21T12:07:55.070Z,3.75
2023-05-21T12:08:58.615Z,3.97
2023-05-21T12:10:01.055Z,3.42
2023-05-21T12:11:03.030Z,3.88
2023-05-21T12:12:08.861Z,3.78
2023-05-21T12:13:10.866Z,3.75
2023-05-21T12:14:13.716Z,3.38
2023-05-21T12:15:18.101Z,3.50
2023-05-21T12:16:22.853Z,3.53
2023-05-21T12:17:31.754Z,3.72
2023-05-21T12:18:33.697Z,3.88
2023-05-21T12:19:36.777Z,3.72
2023-05-21T12:20:39.147Z,3.63
2023-05-21T12:21:42.523Z,3.22
2023-05-21T12:22:44.928Z,3.80
2023-05-21T12:23:46.741Z,3.60
2023-05-21T12:24:48.957Z,3.30
2023-05-21T12:25:51.727Z,3.20
2023-05-21T12:26:55.972Z,3.53
2023-05-21T12:27:59.021Z,4.10
2023-05-21T12:29:04.889Z,3.45
2023-05-21T12:30:07.618Z,3.08
2023-05-21T12:31:15.607Z,3.83
2023-05-21T12:32:17.679Z,3.92
2023-05-21T12:33:19.750Z,3.92
2023-05-21T12:34:44.568Z,3.63
2023-05-21T12:35:51.806Z,3.42
2023-05-21T12:36:53.673Z,3.60
2023-05-21T12:37:55.532Z,3.80
2023-05-21T12:38:58.442Z,3.35
2023-05-21T12:40:01.563Z,3.53
2023-05-21T12:41:05.139Z,3.30
2023-05-21T12:42:07.499Z,3.05
2023-05-21T12:43:09.449Z,3.30
2023-05-21T12:44:12.468Z,3.10
2023-05-21T12:45:14.626Z,3.25
2023-05-21T12:46:17.848Z,2.95
2023-05-21T12:47:22.798Z,3.40
2023-05-21T12:48:24.623Z,2.92
2023-05-21T12:49:43.370Z,3.72
2023-05-21T12:50:45.188Z,3.63
2023-05-21T12:51:48.165Z,3.88
2023-05-21T12:52:49.910Z,3.90
2023-05-21T12:53:51.733Z,3.50
2023-05-21T12:54:58.127Z,3.60
2023-05-21T12:56:15.004Z,3.75
2023-05-21T12:57:21.321Z,4.00
2023-05-21T12:58:23.189Z,3.72
2023-05-21T12:59:24.932Z,3.85
2023-05-21T13:00:26.675Z,3.97
2023-05-21T13:01:28.437Z,4.20
2023-05-21T13:02:33.224Z,3.75
2023-05-21T13:03:36.186Z,3.95
2023-05-21T13:04:38.024Z,3.78
2023-05-21T13:05:42.472Z,3.78
2023-05-21T13:06:44.609Z,3.78
2023-05-21T13:07:47.575Z,3.90
2023-05-21T13:08:49.852Z,3.72
2023-05-21T13:09:54.393Z,3.70
2023-05-21T13:10:56.238Z,3.60
2023-05-21T13:11:57.965Z,3.42
2023-05-21T13:13:00.368Z,3.95
2023-05-21T13:14:02.197Z,3.65
2023-05-21T13:15:06.026Z,3.40
2023-05-21T13:16:11.221Z,3.75
2023-05-21T13:17:12.999Z,3.47
2023-05-21T13:18:17.947Z,3.70
2023-05-21T13:19:19.816Z,3.88
2023-05-21T13:20:22.118Z,3.85
2023-05-21T13:21:24.103Z,3.70
2023-05-21T13:22:25.947Z,5.97
2023-05-21T13:23:27.693Z,4.03
2023-05-21T13:24:29.501Z,4.10
2023-05-21T13:25:32.933Z,4.35
2023-05-21T13:26:34.680Z,3.50
2023-05-21T13:27:36.588Z,3.83
2023-05-21T13:28:38.790Z,3.83
2023-05-21T13:29:41.248Z,4.18
2023-05-21T13:30:43.188Z,3.75
2023-05-21T13:31:44.999Z,3.58
2023-05-21T13:32:47.405Z,3.80
2023-05-21T13:33:52.190Z,3.78
2023-05-21T13:34:54.085Z,3.58
2023-05-21T13:35:55.876Z,4.15
2023-05-21T13:36:57.629Z,3.58
2023-05-21T13:37:59.392Z,3.67
2023-05-21T13:39:01.206Z,3.88
2023-05-21T13:40:07.672Z,3.80
2023-05-21T13:41:09.473Z,3.90
2023-05-21T13:42:11.347Z,3.75
2023-05-21T13:43:13.197Z,3.47
2023-05-21T13:44:14.948Z,3.75
2023-05-21T13:45:19.363Z,3.70
2023-05-21T13:46:21.311Z,3.80
2023-05-21T13:47:24.378Z,4.05
2023-05-21T13:48:29.068Z,3.55
2023-05-21T13:49:30.859Z,3.83
2023-05-21T13:50:32.602Z,3.65
2023-05-21T13:51:39.001Z,3.63
2023-05-21T13:52:41.153Z,3.75
2023-05-21T13:53:43.045Z,3.35
2023-05-21T13:54:44.795Z,3.40
2023-05-21T13:55:46.581Z,3.72
2023-05-21T13:56:48.356Z,3.55
2023-05-21T13:57:50.151Z,3.80
2023-05-21T13:58:51.946Z,4.18
2023-05-21T13:59:53.914Z,3.75
2023-05-21T14:00:55.790Z,3.67
2023-05-21T14:01:58.247Z,3.67
2023-05-21T14:03:00.300Z,3.58
2023-05-21T14:04:04.520Z,3.90
2023-05-21T14:05:06.576Z,3.90